Airfield :
LOGIN :

Register | Disclaimer

   EN    FR    IT 

 










Legend :    VFR   Marginal VFR   IFR   Intensive IFR   Very Intensive IFR
Visi :
Ceiling :
>= 8 km
>= 3000ft
5 to 8 km
1000 to 3000 ft
1500m to 5 km
500 to 1000 ft
800 to 1500m
200 to 500 ft
< 800m
< 200 ft
Symbols :   Thunderstorms  Fog  Heavy snow  Heavy precipitations  Wind > 20 kt
SIGMETs :     Misc.  Thunderstorms  Icing  Turbulence  Mountain Waves  Volcanic Ashes






- Airport Elevation : 90 ft
- IATA code : NTE


LFRS - Nantes

CURRENT METAR :
  • 110030Z AUTO 20010KT 7000 -RADZ OVC005/// ///TCU 11/11 Q1014 BECMG 30008KT SCT012 BKN030

EXPIRED METARs :
  • 110000Z AUTO 20011KT 6000 -RA OVC005/// ///TCU 11/10 Q1014 TEMPO 4500 -RA BECMG 30008KT SCT012 BKN030
  • 102330Z AUTO 20014KT 6000 -RADZ OVC005 11/10 Q1014 TEMPO 4500 -RA BECMG 30008KT SCT012 BKN030
  • 102300Z AUTO 19015KT 5000 -DZ BR OVC006 11/10 Q1015 TEMPO RA BECMG 28005KT
  • 102230Z AUTO 20015KT 5000 -RADZ BR BKN008 OVC017 11/10 Q1015 TEMPO RA BECMG 28005KT
  • 102200Z AUTO 19014KT 9999 DZ BKN008 OVC020 11/10 Q1015 TEMPO 23015G25KT 3000 RA

TAF TAF LFRS
Valid from the 11 at 00:00 until the 12 at 06:00 UTC


102300Z 1100/1206 22015G25KT 4500 -RA BKN008
BECMG 1101/1103 30008KT 9999 NSW SCT012 BKN030
TEMPO 1104/1111 -SHRA BKN030TCU
BECMG 1111/1112 24015G25KT
TEMPO 1112/1117 25020G35KT 2500 TSRAGS BKN008 BKN015CB
BECMG 1122/1124 20005KT
BECMG 1203/1206 4500 -RA BKN015
ATIS : +33 2 40 05 12 74



MET'MAP, your aeronautical weather chart ! - Copyright ORBIFLY December 2007 - Disclaimer

ORBIFLY MET'MAP TEAM :

Programming & Development : Alexandra Zaïnal
Concept & original design : Baudouin d'Aumeries
Assistance for programming : Marc-Olivier Méhu
Technical & hardware support : Manuel Goepfert

Contact : metmap@orbifly.com




SOURCES & CREDITS :

   NOAA